Time;durP1;ratioP1;P1;durP2;ratioP2;P2;SDS_P1;SDS_P2;PMS_P1;PMS_P2;Temp;Humidity;BMP_temperature;BMP_pressure;BME280_temperature;BME280_humidity;BME280_pressure;Samples;Min_cycle;Max_cycle;Signal;HPM_P1;HPM_P2
2021/01/18 00:00:47;;;;;;;26.13;8.50;;;2.10;99.90;;;;;;5053180;28;20485;-54
2021/01/18 00:03:12;;;;;;;24.10;8.10;;;2.10;99.90;;;;;;5075669;28;20127;-51
2021/01/18 00:05:38;;;;;;;26.25;7.03;;;2.10;99.90;;;;;;5079335;28;20499;-53
2021/01/18 00:08:04;;;;;;;31.20;7.88;;;2.00;99.90;;;;;;5081255;28;20484;-53
2021/01/18 00:10:30;;;;;;;19.13;7.47;;;2.00;99.90;;;;;;5086324;28;20040;-49
2021/01/18 00:12:56;;;;;;;29.55;7.90;;;2.10;99.90;;;;;;5076005;28;20500;-52
2021/01/18 00:15:25;;;;;;;17.33;6.22;;;2.10;99.90;;;;;;5058143;28;20120;-54
2021/01/18 00:17:51;;;;;;;25.73;5.97;;;2.10;99.90;;;;;;5065655;28;20040;-54
2021/01/18 00:20:19;;;;;;;22.30;6.43;;;2.10;99.90;;;;;;5066137;28;20051;-54
2021/01/18 00:22:45;;;;;;;17.17;5.82;;;2.20;99.90;;;;;;5064736;28;20045;-50
2021/01/18 00:25:15;;;;;;;23.88;5.38;;;2.10;99.90;;;;;;5065207;28;20809;-50
2021/01/18 00:27:41;;;;;;;31.50;7.35;;;2.10;99.90;;;;;;5064761;28;20127;-52
2021/01/18 00:30:08;;;;;;;25.90;5.68;;;2.10;99.90;;;;;;5058954;28;20527;-51
2021/01/18 00:32:34;;;;;;;29.05;6.15;;;2.10;99.90;;;;;;5064635;28;20066;-56
2021/01/18 00:34:59;;;;;;;25.85;5.80;;;2.10;99.90;;;;;;5032680;28;20516;-53
2021/01/18 00:37:25;;;;;;;30.83;6.80;;;2.10;99.90;;;;;;5064994;28;20040;-50
2021/01/18 00:39:51;;;;;;;27.20;6.40;;;2.10;99.90;;;;;;5055708;28;20033;-50
2021/01/18 00:42:20;;;;;;;31.80;6.22;;;2.10;99.90;;;;;;5066225;28;20071;-53
2021/01/18 00:44:47;;;;;;;28.98;7.68;;;2.00;99.90;;;;;;5058877;28;20037;-52
2021/01/18 00:47:13;;;;;;;21.10;5.68;;;2.10;99.90;;;;;;5064088;28;20439;-55
2021/01/18 00:49:38;;;;;;;24.30;5.65;;;2.10;99.90;;;;;;5065174;28;20076;-51
2021/01/18 00:52:04;;;;;;;20.10;5.85;;;2.20;99.90;;;;;;5064524;28;20130;-53
2021/01/18 00:54:30;;;;;;;25.27;5.53;;;2.10;99.90;;;;;;5065017;28;20056;-54
2021/01/18 00:56:55;;;;;;;26.02;6.18;;;2.20;99.90;;;;;;5064415;28;20059;-52
2021/01/18 00:59:21;;;;;;;26.77;5.18;;;2.10;99.90;;;;;;5057601;28;20037;-51
2021/01/18 01:01:46;;;;;;;21.58;5.35;;;2.00;99.90;;;;;;5064023;28;20036;-54
2021/01/18 01:04:12;;;;;;;19.85;5.05;;;2.00;99.90;;;;;;5047647;28;20028;-49
2021/01/18 01:06:37;;;;;;;34.65;6.18;;;2.00;99.90;;;;;;5064900;28;20037;-51
2021/01/18 01:09:04;;;;;;;24.38;5.63;;;2.00;99.90;;;;;;5068410;28;20491;-53
2021/01/18 01:11:29;;;;;;;19.90;5.07;;;2.00;99.90;;;;;;5051919;28;20784;-52
2021/01/18 01:13:55;;;;;;;12.52;4.10;;;2.00;99.90;;;;;;5064530;28;20044;-54
2021/01/18 01:16:20;;;;;;;18.83;4.57;;;2.00;99.90;;;;;;5062475;28;20155;-50
2021/01/18 01:18:46;;;;;;;27.20;5.03;;;2.00;99.90;;;;;;5064839;28;20089;-56
2021/01/18 01:21:11;;;;;;;21.00;4.78;;;2.00;99.90;;;;;;5064970;28;20038;-53
2021/01/18 01:23:37;;;;;;;19.75;4.43;;;2.00;99.90;;;;;;5065293;28;20126;-53
2021/01/18 01:26:02;;;;;;;18.30;4.63;;;2.00;99.90;;;;;;5055289;28;20740;-54
2021/01/18 01:28:28;;;;;;;19.75;4.75;;;2.10;99.90;;;;;;5045424;28;20040;-55
2021/01/18 01:30:54;;;;;;;18.40;4.10;;;2.10;99.90;;;;;;5050670;28;20420;-54
2021/01/18 01:33:19;;;;;;;19.92;5.32;;;2.10;99.90;;;;;;5064176;28;20033;-53
2021/01/18 01:35:45;;;;;;;27.45;5.15;;;2.10;99.90;;;;;;5064180;28;20041;-52
2021/01/18 01:38:10;;;;;;;25.67;4.75;;;2.10;99.90;;;;;;5068765;28;20036;-56
2021/01/18 01:40:36;;;;;;;26.70;5.75;;;2.00;99.90;;;;;;5062602;28;20610;-49
2021/01/18 01:43:03;;;;;;;20.58;5.13;;;2.00;99.90;;;;;;5064745;28;20130;-52
2021/01/18 01:45:28;;;;;;;31.77;6.25;;;2.00;99.90;;;;;;5062672;28;20116;-50
2021/01/18 01:47:56;;;;;;;30.00;7.25;;;2.00;99.90;;;;;;5046900;28;20132;-56
2021/01/18 01:50:34;;;;;;;23.67;7.10;;;2.00;99.90;;;;;;5064674;28;20055;-51
2021/01/18 01:53:15;;;;;;;22.52;5.80;;;2.00;99.90;;;;;;5050033;28;20178;-50
2021/01/18 01:55:40;;;;;;;24.58;7.30;;;2.00;99.90;;;;;;5064615;28;20047;-48
2021/01/18 01:58:07;;;;;;;27.40;6.78;;;2.00;99.90;;;;;;5064567;28;20036;-53
2021/01/18 02:00:37;;;;;;;20.95;6.40;;;2.00;99.90;;;;;;5062896;28;20047;-52
2021/01/18 02:03:15;;;;;;;31.25;6.78;;;2.00;99.90;;;;;;5062954;28;20049;-50
2021/01/18 02:05:43;;;;;;;18.48;5.70;;;1.90;99.90;;;;;;5064377;28;20041;-51
2021/01/18 02:08:12;;;;;;;25.15;6.85;;;1.80;99.90;;;;;;5055741;28;20036;-52
2021/01/18 02:10:38;;;;;;;32.70;7.20;;;1.80;99.90;;;;;;5065693;28;20063;-53
2021/01/18 02:13:37;;;;;;;11.45;4.82;;;1.80;99.90;;;;;;5059798;28;20040;-56
2021/01/18 02:16:27;;;;;;;23.25;5.75;;;1.80;99.90;;;;;;5062237;28;20067;-51
2021/01/18 02:19:14;;;;;;;20.35;6.32;;;1.90;99.90;;;;;;5062690;28;20106;-50
2021/01/18 02:22:25;;;;;;;20.27;6.13;;;1.90;99.90;;;;;;5062127;28;20032;-52
2021/01/18 02:25:19;;;;;;;26.02;6.75;;;1.90;99.90;;;;;;5054519;28;20166;-55
2021/01/18 02:28:02;;;;;;;27.33;6.65;;;1.90;99.90;;;;;;5058360;28;20041;-51
2021/01/18 02:31:06;;;;;;;24.42;6.35;;;1.90;99.90;;;;;;5049517;28;20045;-51
2021/01/18 02:33:56;;;;;;;27.08;6.57;;;1.90;99.90;;;;;;5058667;28;20059;-53
2021/01/18 02:36:28;;;;;;;36.90;8.30;;;1.90;99.90;;;;;;5056886;28;20061;-54
2021/01/18 02:39:08;;;;;;;16.98;5.07;;;1.90;99.90;;;;;;5062852;28;20177;-51
2021/01/18 02:41:56;;;;;;;24.52;6.72;;;1.90;99.90;;;;;;5057789;28;20083;-51
2021/01/18 02:44:24;;;;;;;28.75;5.82;;;1.90;99.90;;;;;;5052142;28;20052;-57
2021/01/18 02:46:50;;;;;;;26.67;6.85;;;2.00;99.90;;;;;;5054427;28;20132;-53
2021/01/18 02:49:17;;;;;;;13.23;5.10;;;2.00;99.90;;;;;;5062674;28;20508;-52
2021/01/18 02:52:14;;;;;;;19.67;5.07;;;2.00;99.90;;;;;;5063978;28;20071;-52
2021/01/18 02:54:39;;;;;;;29.42;6.53;;;2.00;99.90;;;;;;5044476;28;20044;-53
2021/01/18 02:57:06;;;;;;;22.25;5.38;;;2.00;99.90;;;;;;5052828;28;20071;-57
2021/01/18 02:59:33;;;;;;;33.13;6.40;;;2.00;99.90;;;;;;5063874;28;20052;-54
2021/01/18 03:02:16;;;;;;;14.20;5.28;;;2.00;99.90;;;;;;5051232;28;20071;-54
2021/01/18 03:05:03;;;;;;;15.48;4.10;;;1.90;99.90;;;;;;5049293;28;20037;-52
2021/01/18 03:07:58;;;;;;;25.52;5.30;;;1.90;99.90;;;;;;5060974;28;20025;-51
2021/01/18 03:10:34;;;;;;;19.58;4.72;;;1.80;99.90;;;;;;5065321;28;20139;-54
2021/01/18 03:13:13;;;;;;;15.30;3.60;;;1.80;99.90;;;;;;5063172;28;20100;-55
2021/01/18 03:15:42;;;;;;;7.63;3.15;;;1.80;99.90;;;;;;5046689;28;20504;-48
2021/01/18 03:18:13;;;;;;;14.35;3.70;;;1.70;99.90;;;;;;5063748;28;20127;-56
2021/01/18 03:20:39;;;;;;;6.63;3.25;;;1.70;99.90;;;;;;5062925;28;20055;-54
2021/01/18 03:23:08;;;;;;;8.60;3.85;;;1.70;99.90;;;;;;5064321;28;20040;-50
2021/01/18 03:25:54;;;;;;;16.75;4.70;;;1.70;99.90;;;;;;5061392;28;20043;-49
2021/01/18 03:28:21;;;;;;;11.05;4.45;;;1.80;99.90;;;;;;5062614;28;20071;-52
2021/01/18 03:30:47;;;;;;;11.18;4.03;;;1.80;99.90;;;;;;5044589;28;20037;-53
2021/01/18 03:33:14;;;;;;;10.88;4.13;;;1.90;99.90;;;;;;5063833;28;20063;-55
2021/01/18 03:35:40;;;;;;;16.17;5.75;;;1.90;99.90;;;;;;5062638;28;20093;-52
2021/01/18 03:38:06;;;;;;;11.73;4.50;;;1.90;99.90;;;;;;5067506;28;20434;-55
2021/01/18 03:40:32;;;;;;;18.08;5.45;;;2.00;99.90;;;;;;5078120;28;20091;-53
2021/01/18 03:43:04;;;;;;;9.95;4.25;;;2.00;99.90;;;;;;5063751;28;20094;-50
2021/01/18 03:45:36;;;;;;;9.77;5.15;;;2.00;99.90;;;;;;5060804;28;20415;-49
2021/01/18 03:48:02;;;;;;;12.05;5.72;;;2.00;99.90;;;;;;5060609;28;20419;-54
2021/01/18 03:50:28;;;;;;;11.52;5.63;;;2.00;99.90;;;;;;5065136;28;20075;-53
2021/01/18 03:52:53;;;;;;;14.55;5.22;;;2.00;99.90;;;;;;5085860;28;20059;-53
2021/01/18 03:55:20;;;;;;;10.40;4.50;;;1.90;99.90;;;;;;5072206;28;20506;-56
2021/01/18 03:57:50;;;;;;;7.18;3.20;;;1.80;99.90;;;;;;5065380;28;20041;-51
2021/01/18 04:00:26;;;;;;;9.57;3.70;;;1.80;99.90;;;;;;5046973;28;20110;-51
2021/01/18 04:02:52;;;;;;;;;;;1.80;99.90;;;;;;5058502;28;20029;-55
2021/01/18 04:05:19;;;;;;;16.83;3.30;;;1.70;99.90;;;;;;5051122;28;19997;-53
2021/01/18 04:07:46;;;;;;;6.15;2.20;;;1.70;99.90;;;;;;5066982;28;20036;-55
2021/01/18 04:10:16;;;;;;;4.47;2.30;;;1.70;99.90;;;;;;5068603;28;20039;-54
2021/01/18 04:12:44;;;;;;;3.13;2.00;;;1.80;99.90;;;;;;5066442;28;20044;-55
2021/01/18 04:15:11;;;;;;;3.80;2.42;;;1.80;99.90;;;;;;5064178;28;20045;-52
2021/01/18 04:17:41;;;;;;;4.45;2.47;;;1.80;99.90;;;;;;5067009;28;20046;-51
2021/01/18 04:20:08;;;;;;;3.38;2.08;;;1.80;99.90;;;;;;5040465;28;20182;-53
2021/01/18 04:22:34;;;;;;;5.85;2.30;;;1.70;99.90;;;;;;5067324;28;20093;-53
2021/01/18 04:25:00;;;;;;;3.40;1.95;;;1.70;99.90;;;;;;5066078;28;20044;-52
2021/01/18 04:27:25;;;;;;;4.38;2.17;;;1.70;99.90;;;;;;5066845;28;20048;-54
2021/01/18 04:29:51;;;;;;;5.07;2.28;;;1.60;99.90;;;;;;5064107;28;20067;-53
2021/01/18 04:32:16;;;;;;;5.57;3.05;;;1.70;99.90;;;;;;5061634;28;20040;-53
2021/01/18 04:34:42;;;;;;;6.32;2.30;;;1.70;99.90;;;;;;5047141;28;20044;-54
2021/01/18 04:37:08;;;;;;;8.90;2.83;;;1.70;99.90;;;;;;5047101;28;20040;-55
2021/01/18 04:39:34;;;;;;;6.55;3.78;;;1.70;99.90;;;;;;5070143;28;20041;-53
2021/01/18 04:41:59;;;;;;;9.48;4.10;;;1.70;99.90;;;;;;5049885;28;20096;-50
2021/01/18 04:44:29;;;;;;;12.57;4.00;;;1.70;99.90;;;;;;5066472;28;20045;-53
2021/01/18 04:46:55;;;;;;;12.75;4.25;;;1.60;99.90;;;;;;5064691;28;20040;-53
2021/01/18 04:49:22;;;;;;;16.17;4.65;;;1.60;99.90;;;;;;5066233;28;20068;-52
2021/01/18 04:51:56;;;;;;;12.85;4.45;;;1.70;99.90;;;;;;5066365;28;20044;-50
2021/01/18 04:54:23;;;;;;;16.88;5.30;;;1.70;99.90;;;;;;5065926;28;20052;-51
2021/01/18 04:57:09;;;;;;;11.43;4.88;;;1.70;99.90;;;;;;5064865;28;20032;-53
2021/01/18 04:59:43;;;;;;;14.18;4.63;;;1.70;99.90;;;;;;5065172;28;20045;-55
2021/01/18 05:02:19;;;;;;;9.40;5.13;;;1.60;99.90;;;;;;5064543;28;20040;-55
2021/01/18 05:04:47;;;;;;;13.82;6.00;;;1.60;99.90;;;;;;5066317;28;20051;-53
2021/01/18 05:07:32;;;;;;;15.75;5.80;;;1.60;99.90;;;;;;5065292;28;20496;-49
2021/01/18 05:10:06;;;;;;;14.68;5.03;;;1.60;99.90;;;;;;5073614;28;20111;-51
2021/01/18 05:12:35;;;;;;;10.95;4.53;;;1.60;99.90;;;;;;5059343;28;20115;-50
2021/01/18 05:15:03;;;;;;;19.70;5.20;;;1.60;99.90;;;;;;5065494;28;20044;-55
2021/01/18 05:17:42;;;;;;;12.63;5.60;;;1.60;99.90;;;;;;5061148;28;20404;-49
2021/01/18 05:20:10;;;;;;;12.50;5.82;;;1.60;99.90;;;;;;5047098;28;20604;-49
2021/01/18 05:22:36;;;;;;;12.10;5.20;;;1.50;99.90;;;;;;5046583;28;20411;-56
2021/01/18 05:25:06;;;;;;;11.80;4.43;;;1.50;99.90;;;;;;5061802;28;20038;-61
2021/01/18 05:27:32;;;;;;;10.38;3.58;;;1.50;99.90;;;;;;5057561;28;20048;-54
2021/01/18 05:29:57;;;;;;;8.73;3.20;;;1.40;99.90;;;;;;5065381;28;20063;-49
2021/01/18 05:32:25;;;;;;;9.43;3.63;;;1.40;99.90;;;;;;5046784;28;20664;-51
2021/01/18 05:35:10;;;;;;;12.43;4.28;;;1.40;99.90;;;;;;5045643;28;20072;-53
2021/01/18 05:37:36;;;;;;;9.63;2.78;;;1.40;99.90;;;;;;5053194;28;20098;-50
2021/01/18 05:40:19;;;;;;;14.55;3.55;;;1.40;99.90;;;;;;5073465;28;20113;-52
2021/01/18 05:42:45;;;;;;;9.57;3.20;;;1.40;99.90;;;;;;5058979;28;20167;-53
2021/01/18 05:45:11;;;;;;;8.45;3.10;;;1.40;99.90;;;;;;5063350;28;20139;-52
2021/01/18 05:47:42;;;;;;;12.60;2.65;;;1.40;99.90;;;;;;5065593;28;20511;-52
2021/01/18 05:50:08;;;;;;;8.90;3.28;;;1.30;99.90;;;;;;5064606;28;20060;-51
2021/01/18 05:52:34;;;;;;;10.52;3.20;;;1.30;99.90;;;;;;5054143;28;20154;-55
2021/01/18 05:55:28;;;;;;;8.52;3.55;;;1.30;99.90;;;;;;5045315;28;20060;-49
2021/01/18 05:58:02;;;;;;;12.68;3.80;;;1.30;99.90;;;;;;5058623;28;20029;-53
2021/01/18 06:00:35;;;;;;;13.15;3.50;;;1.20;99.90;;;;;;5063232;28;20122;-51
2021/01/18 06:03:06;;;;;;;9.05;3.10;;;1.30;99.90;;;;;;5064938;28;20051;-50
2021/01/18 06:05:34;;;;;;;16.17;3.20;;;1.30;99.90;;;;;;5062868;28;20131;-52
2021/01/18 06:08:14;;;;;;;10.82;4.35;;;1.30;99.90;;;;;;5068346;28;20421;-54
2021/01/18 06:10:41;;;;;;;12.48;5.07;;;1.30;99.90;;;;;;5064636;28;20044;-52
2021/01/18 06:13:26;;;;;;;26.02;5.75;;;1.30;99.90;;;;;;5064229;28;20040;-52
2021/01/18 06:16:06;;;;;;;12.75;5.88;;;1.20;99.90;;;;;;5062958;28;20129;-52
2021/01/18 06:18:39;;;;;;;17.60;5.85;;;1.20;99.90;;;;;;5063123;28;20044;-56
2021/01/18 06:21:07;;;;;;;22.88;7.25;;;1.20;99.90;;;;;;5064370;28;20488;-47
2021/01/18 06:23:33;;;;;;;22.40;7.07;;;1.30;99.90;;;;;;5063942;28;20048;-54
2021/01/18 06:25:59;;;;;;;16.45;6.80;;;1.30;99.90;;;;;;5064044;28;20040;-52
2021/01/18 06:28:27;;;;;;;13.15;6.07;;;1.30;99.90;;;;;;5055035;28;20052;-52
2021/01/18 06:30:59;;;;;;;13.43;6.15;;;1.30;99.90;;;;;;5054057;28;20416;-55
2021/01/18 06:33:48;;;;;;;22.75;6.30;;;1.40;99.90;;;;;;5063940;28;20040;-54
2021/01/18 06:36:25;;;;;;;27.40;6.43;;;1.40;99.90;;;;;;5062325;28;20596;-56
2021/01/18 06:39:01;;;;;;;15.00;5.60;;;1.40;99.90;;;;;;5072998;28;20028;-55
2021/01/18 06:41:30;;;;;;;17.35;5.95;;;1.50;99.90;;;;;;5073177;28;20045;-55
2021/01/18 06:43:56;;;;;;;17.15;5.72;;;1.50;99.90;;;;;;5062241;28;20037;-55
2021/01/18 06:46:25;;;;;;;15.05;5.57;;;1.50;99.90;;;;;;5061678;28;20036;-54
2021/01/18 06:48:52;;;;;;;11.68;4.90;;;1.40;99.90;;;;;;5052065;28;20033;-51
2021/01/18 06:51:20;;;;;;;19.00;5.30;;;1.30;99.90;;;;;;5044237;28;20037;-54
2021/01/18 06:53:47;;;;;;;18.80;6.00;;;1.30;99.90;;;;;;5043886;28;20041;-55
2021/01/18 06:56:21;;;;;;;19.10;5.80;;;1.30;99.90;;;;;;5043942;28;20433;-53
2021/01/18 06:59:21;;;;;;;23.80;7.38;;;1.30;99.90;;;;;;5042749;28;20041;-53
2021/01/18 07:01:47;;;;;;;17.40;6.18;;;1.30;99.90;;;;;;5042126;28;20047;-54
2021/01/18 07:04:15;;;;;;;13.90;5.78;;;1.30;99.90;;;;;;5063465;28;20094;-53
2021/01/18 07:06:45;;;;;;;18.52;6.93;;;1.20;99.90;;;;;;5063726;28;20050;-55
2021/01/18 07:09:19;;;;;;;26.73;8.75;;;1.20;99.90;;;;;;5067260;28;20086;-52
2021/01/18 07:11:45;;;;;;;18.42;6.93;;;1.30;99.90;;;;;;5065985;28;20881;-53
2021/01/18 07:14:13;;;;;;;20.42;6.65;;;1.30;99.90;;;;;;5055086;28;20040;-55
2021/01/18 07:16:40;;;;;;;15.45;7.38;;;1.40;99.90;;;;;;5061082;28;20048;-54
2021/01/18 07:19:08;;;;;;;19.60;7.18;;;1.40;99.90;;;;;;5063234;28;20137;-57
2021/01/18 07:22:11;;;;;;;20.45;7.32;;;1.50;99.90;;;;;;5063211;28;20697;-53
2021/01/18 07:24:42;;;;;;;19.67;6.85;;;1.50;99.90;;;;;;5052496;28;20082;-51
2021/01/18 07:27:15;;;;;;;16.50;7.28;;;1.50;99.90;;;;;;5053159;28;20052;-50
2021/01/18 07:29:41;;;;;;;18.90;7.57;;;1.50;99.90;;;;;;5061867;28;20056;-51
2021/01/18 07:32:08;;;;;;;17.40;7.68;;;1.50;99.90;;;;;;5047886;28;20147;-51
2021/01/18 07:34:35;;;;;;;16.00;6.78;;;1.40;99.90;;;;;;5063270;28;20133;-53
2021/01/18 07:37:09;;;;;;;22.20;7.50;;;1.50;99.90;;;;;;5066610;28;20731;-54
2021/01/18 07:39:40;;;;;;;24.75;6.57;;;1.60;99.90;;;;;;5061770;28;20063;-50
2021/01/18 07:42:36;;;;;;;17.02;7.10;;;1.60;99.90;;;;;;5065759;28;20180;-56
2021/01/18 07:45:11;;;;;;;20.55;6.60;;;1.70;99.90;;;;;;5066175;28;20496;-51
2021/01/18 07:47:55;;;;;;;24.23;8.13;;;1.80;99.90;;;;;;5066831;28;20083;-53
2021/01/18 07:50:27;;;;;;;22.52;8.25;;;1.80;99.90;;;;;;5050909;28;20119;-56
2021/01/18 07:53:05;;;;;;;19.65;7.82;;;1.80;99.90;;;;;;5065522;28;20037;-56
2021/01/18 07:55:31;;;;;;;22.92;6.70;;;1.80;99.90;;;;;;5066365;28;20136;-55
2021/01/18 07:58:17;;;;;;;19.40;6.90;;;1.90;99.90;;;;;;5066063;28;20123;-54
2021/01/18 08:00:47;;;;;;;28.45;7.10;;;1.90;99.90;;;;;;5066201;28;20037;-53
2021/01/18 08:03:13;;;;;;;18.65;7.10;;;1.90;99.90;;;;;;5059640;28;20048;-53
2021/01/18 08:05:40;;;;;;;16.88;7.47;;;2.00;99.90;;;;;;5066349;28;20041;-52
2021/01/18 08:08:12;;;;;;;19.20;7.65;;;2.00;99.90;;;;;;5056055;28;20044;-56
2021/01/18 08:10:54;;;;;;;18.73;7.82;;;2.00;99.90;;;;;;5066760;28;20055;-50
2021/01/18 08:13:40;;;;;;;21.80;8.00;;;1.90;99.90;;;;;;5051686;28;20063;-53
2021/01/18 08:16:13;;;;;;;22.50;8.02;;;1.90;99.90;;;;;;5067576;28;20051;-49
2021/01/18 08:18:56;;;;;;;18.75;7.85;;;1.90;99.90;;;;;;5068009;28;20059;-54
2021/01/18 08:21:39;;;;;;;22.13;7.97;;;2.00;99.90;;;;;;5051307;28;20056;-51
2021/01/18 08:24:06;;;;;;;16.77;7.20;;;2.00;99.90;;;;;;5047918;28;20064;-53
2021/01/18 08:27:00;;;;;;;14.07;6.88;;;2.00;99.90;;;;;;5067494;28;20041;-56
2021/01/18 08:29:38;;;;;;;21.20;8.20;;;2.10;99.90;;;;;;5056692;28;20033;-54
2021/01/18 08:32:22;;;;;;;16.42;7.03;;;2.10;99.90;;;;;;5047174;28;20038;-59
2021/01/18 08:34:53;;;;;;;15.90;7.10;;;2.10;99.90;;;;;;5062457;28;20040;-47
2021/01/18 08:37:19;;;;;;;14.45;6.18;;;2.00;99.90;;;;;;5059061;28;21450;-52
2021/01/18 08:39:58;;;;;;;22.23;7.65;;;2.00;99.90;;;;;;5064773;28;20711;-50
2021/01/18 08:42:25;;;;;;;14.55;7.50;;;2.00;99.90;;;;;;5068204;28;20044;-55
2021/01/18 08:45:08;;;;;;;16.77;7.15;;;2.00;99.90;;;;;;5065996;28;20032;-53
2021/01/18 08:47:43;;;;;;;16.13;6.72;;;2.00;99.90;;;;;;5051749;28;20036;-51
2021/01/18 08:50:29;;;;;;;14.35;6.80;;;2.00;99.90;;;;;;5066686;28;20032;-48
2021/01/18 08:52:55;;;;;;;10.98;6.57;;;2.00;99.90;;;;;;5067686;28;20033;-53
2021/01/18 08:55:30;;;;;;;15.90;6.82;;;2.10;99.90;;;;;;5066376;28;20044;-47
2021/01/18 08:58:00;;;;;;;12.85;6.90;;;2.20;99.90;;;;;;5066609;28;20081;-46
2021/01/18 09:00:48;;;;;;;14.20;6.68;;;2.20;99.90;;;;;;5056755;28;20246;-46
2021/01/18 09:03:18;;;;;;;16.17;7.10;;;2.30;99.90;;;;;;5055116;28;20048;-53
2021/01/18 09:05:52;;;;;;;21.33;7.53;;;2.30;99.90;;;;;;5060229;28;20415;-48
2021/01/18 09:08:20;;;;;;;14.18;6.22;;;2.30;99.90;;;;;;5063290;28;20729;-54
2021/01/18 09:10:59;;;;;;;19.13;6.30;;;2.30;99.90;;;;;;5064658;28;20041;-47
2021/01/18 09:13:26;;;;;;;14.63;6.32;;;2.40;99.90;;;;;;5064746;28;20131;-50
2021/01/18 09:15:54;;;;;;;18.17;6.82;;;2.30;99.90;;;;;;5065131;28;20048;-48
2021/01/18 09:18:22;;;;;;;21.48;6.85;;;2.30;99.90;;;;;;5065742;28;20562;-52
2021/01/18 09:20:49;;;;;;;18.67;6.47;;;2.40;99.90;;;;;;5032766;28;20047;-54
2021/01/18 09:23:15;;;;;;;18.35;6.45;;;2.40;99.90;;;;;;5065227;28;20072;-50
2021/01/18 09:25:41;;;;;;;20.90;7.03;;;2.40;99.90;;;;;;5066370;28;20527;-50
2021/01/18 09:28:15;;;;;;;18.17;6.72;;;2.50;99.90;;;;;;5058783;28;20046;-52
2021/01/18 09:30:44;;;;;;;16.92;6.20;;;2.50;99.90;;;;;;5058225;22;20037;-75
2021/01/18 09:33:11;;;;;;;16.45;6.82;;;2.60;99.90;;;;;;5045223;28;20071;-75
2021/01/18 09:35:42;;;;;;;19.98;7.70;;;2.70;99.90;;;;;;5050233;28;20040;-75
2021/01/18 09:38:11;;;;;;;14.23;6.68;;;2.60;99.90;;;;;;5038594;28;20032;-76
2021/01/18 09:40:43;;;;;;;15.82;7.10;;;2.60;99.90;;;;;;5049144;28;20102;-75
2021/01/18 09:43:11;;;;;;;20.02;7.20;;;2.60;99.90;;;;;;5068419;28;20505;-75
2021/01/18 09:45:37;;;;;;;19.65;7.65;;;2.70;99.90;;;;;;5039764;28;20040;-76
2021/01/18 09:48:06;;;;;;;20.35;7.88;;;2.70;99.90;;;;;;5048967;28;20484;-76
2021/01/18 09:50:32;;;;;;;14.52;6.28;;;2.70;99.90;;;;;;5050179;28;20089;-76
2021/01/18 09:52:59;;;;;;;19.48;6.90;;;2.70;99.90;;;;;;5047466;28;20041;-76
2021/01/18 09:55:30;;;;;;;19.13;7.13;;;2.70;99.90;;;;;;5041338;28;20063;-76
2021/01/18 09:58:32;;;;;;;19.80;7.47;;;2.70;99.90;;;;;;5044876;28;20033;-76
2021/01/18 10:01:01;;;;;;;15.05;7.07;;;2.70;99.90;;;;;;5036412;28;20037;-74
2021/01/18 10:03:31;;;;;;;13.68;6.47;;;2.70;99.90;;;;;;5046185;28;20045;-75
2021/01/18 10:06:12;;;;;;;11.55;5.93;;;2.60;99.90;;;;;;5064975;28;20115;-75
2021/01/18 10:08:41;;;;;;;16.05;6.15;;;2.70;99.90;;;;;;5066697;28;20083;-74
2021/01/18 10:11:08;;;;;;;11.50;5.75;;;2.70;99.90;;;;;;5063909;28;20035;-75
2021/01/18 10:13:34;;;;;;;12.77;5.53;;;2.80;99.90;;;;;;5049284;28;20045;-76
2021/01/18 10:16:13;;;;;;;15.57;5.65;;;2.80;99.90;;;;;;5047412;28;20044;-75
2021/01/18 10:18:42;;;;;;;11.25;5.25;;;2.70;99.90;;;;;;5048831;28;20062;-75
2021/01/18 10:21:09;;;;;;;10.10;5.28;;;2.80;99.90;;;;;;5049845;28;20037;-76
2021/01/18 10:23:46;;;;;;;16.67;5.82;;;2.80;99.90;;;;;;5050021;28;20052;-76
2021/01/18 10:26:19;;;;;;;14.00;5.65;;;2.70;99.90;;;;;;5049439;28;20252;-74
2021/01/18 10:29:09;;;;;;;20.80;6.43;;;2.70;99.90;;;;;;5055699;28;20565;-75
2021/01/18 10:31:36;;;;;;;22.13;7.20;;;2.60;99.90;;;;;;5036135;28;20037;-74
2021/01/18 10:34:20;;;;;;;19.17;9.05;;;2.60;99.90;;;;;;5033406;28;20138;-72
2021/01/18 10:36:48;;;;;;;22.92;9.48;;;2.60;99.90;;;;;;5066304;28;20124;-74
2021/01/18 10:39:27;;;;;;;19.05;8.15;;;2.60;99.90;;;;;;5062129;28;20047;-76
2021/01/18 10:42:01;;;;;;;19.90;7.53;;;2.60;99.90;;;;;;5048399;28;20043;-75
2021/01/18 10:44:27;;;;;;;17.88;7.72;;;2.70;99.90;;;;;;5049081;28;20053;-76
2021/01/18 10:46:53;;;;;;;17.27;8.45;;;2.60;99.90;;;;;;5046224;28;20047;-75
2021/01/18 10:49:33;;;;;;;22.58;8.85;;;2.60;99.90;;;;;;5047985;28;20521;-75
2021/01/18 10:52:08;;;;;;;26.45;9.77;;;2.60;99.90;;;;;;5047329;28;20036;-74
2021/01/18 10:54:34;;;;;;;20.35;9.32;;;2.60;99.90;;;;;;5065989;28;20048;-74
2021/01/18 10:57:01;;;;;;;20.70;10.13;;;2.70;99.90;;;;;;5048875;28;20194;-74
2021/01/18 10:59:28;;;;;;;19.83;8.35;;;2.70;99.90;;;;;;5066230;28;20669;-75
2021/01/18 11:02:06;;;;;;;19.15;9.23;;;2.70;99.90;;;;;;5036495;28;20052;-75
2021/01/18 11:04:42;;;;;;;32.72;14.88;;;2.70;99.90;;;;;;5034624;28;20048;-75
2021/01/18 11:07:09;;;;;;;;;;;2.70;99.90;;;;;;5049123;28;20043;-75
2021/01/18 11:09:35;;;;;;;33.05;14.20;;;2.70;99.90;;;;;;5045557;28;19920;-75
2021/01/18 11:12:01;;;;;;;32.38;11.18;;;;;;;;;;5057446;28;20089;-74
2021/01/18 11:14:28;;;;;;;22.70;9.45;;;;;;;;;;5048272;28;20135;-73
2021/01/18 11:17:02;;;;;;;32.50;16.05;;;;;;;;;;5047065;28;20050;-74
2021/01/18 11:19:29;;;;;;;18.52;8.18;;;;;;;;;;5048741;28;20472;-75
2021/01/18 11:21:55;;;;;;;22.98;8.73;;;;;;;;;;5048781;28;20074;-76
2021/01/18 11:24:21;;;;;;;26.10;10.25;;;;;;;;;;5049043;28;20103;-76
2021/01/18 11:26:48;;;;;;;20.38;7.90;;;;;;;;;;5049931;28;20036;-75
2021/01/18 11:29:14;;;;;;;24.77;9.77;;;;;;;;;;5066458;28;20036;-74
2021/01/18 11:31:40;;;;;;;16.60;8.07;;;;;;;;;;5039032;28;20374;-74
2021/01/18 11:34:06;;;;;;;23.15;8.88;;;;;;;;;;5048181;28;20036;-74
2021/01/18 11:36:33;;;;;;;17.83;7.35;;;;;;;;;;5048163;28;20068;-75
2021/01/18 11:39:01;;;;;;;34.90;15.30;;;;;;;;;;5045042;28;20037;-73
2021/01/18 11:41:28;;;;;;;27.27;10.40;;;;;;;;;;5048404;28;20459;-73
2021/01/18 11:43:54;;;;;;;32.00;9.25;;;;;;;;;;5066308;28;20045;-73
2021/01/18 11:46:20;;;;;;;19.17;7.65;;;;;;;;;;5047139;28;20169;-73
2021/01/18 11:48:46;;;;;;;15.20;6.72;;;;;;;;;;5048133;28;20123;-74
2021/01/18 11:51:12;;;;;;;23.55;8.30;;;;;;;;;;5048883;28;20182;-74
2021/01/18 11:53:38;;;;;;;16.52;6.60;;;;;;;;;;5048749;28;20602;-78
2021/01/18 11:56:05;;;;;;;12.95;6.50;;;;;;;;;;5049358;28;20088;-75
2021/01/18 11:58:31;;;;;;;14.00;7.03;;;;;;;;;;5049796;28;20045;-77
2021/01/18 12:00:57;;;;;;;14.68;6.60;;;;;;;;;;5048808;28;20067;-74
2021/01/18 12:03:24;;;;;;;14.93;6.45;;;;;;;;;;5048107;28;20064;-76
2021/01/18 12:05:50;;;;;;;19.45;7.25;;;;;;;;;;5048583;28;20036;-77
2021/01/18 12:08:17;;;;;;;14.85;6.35;;;;;;;;;;5042216;28;20033;-74
2021/01/18 12:10:43;;;;;;;18.80;6.15;;;;;;;;;;5047332;28;20059;-76
2021/01/18 12:13:09;;;;;;;13.38;6.28;;;;;;;;;;5051823;28;20024;-79
2021/01/18 12:15:36;;;;;;;14.15;6.00;;;;;;;;;;5051659;28;20044;-80
2021/01/18 12:18:02;;;;;;;16.38;6.85;;;;;;;;;;5052106;28;20076;-76
2021/01/18 12:20:28;;;;;;;14.30;6.90;;;;;;;;;;5052947;28;20036;-75
2021/01/18 12:22:55;;;;;;;16.38;7.25;;;;;;;;;;5051362;28;20067;-75
2021/01/18 12:25:22;;;;;;;15.60;6.25;;;;;;;;;;5051426;28;20052;-78
2021/01/18 12:27:49;;;;;;;18.02;8.27;;;;;;;;;;5052788;28;20040;-76
2021/01/18 12:30:16;;;;;;;18.85;9.05;;;;;;;;;;5050700;28;20036;-76
2021/01/18 12:32:43;;;;;;;24.73;10.57;;;;;;;;;;5070908;28;20036;-77
2021/01/18 12:35:09;;;;;;;13.85;6.85;;;;;;;;;;5051512;28;20044;-75
2021/01/18 12:37:36;;;;;;;11.82;6.43;;;;;;;;;;5050129;28;20099;-76
2021/01/18 12:40:03;;;;;;;13.73;7.65;;;;;;;;;;5048344;28;20041;-76
2021/01/18 12:42:30;;;;;;;18.38;8.65;;;;;;;;;;5031623;28;20102;-76
2021/01/18 12:44:56;;;;;;;12.93;6.38;;;;;;;;;;5046543;28;20047;-76
2021/01/18 12:47:22;;;;;;;11.60;6.38;;;;;;;;;;5050374;28;20057;-76
2021/01/18 12:49:48;;;;;;;13.40;6.35;;;;;;;;;;5070211;28;20070;-76
2021/01/18 12:52:14;;;;;;;11.00;5.60;;;;;;;;;;5051788;28;20036;-78
2021/01/18 12:54:41;;;;;;;18.45;9.45;;;;;;;;;;5052002;28;20166;-75
2021/01/18 12:57:07;;;;;;;12.30;6.90;;;;;;;;;;5051778;28;20048;-75
2021/01/18 12:59:33;;;;;;;10.15;4.88;;;;;;;;;;5050681;28;20045;-75
2021/01/18 13:01:59;;;;;;;11.57;5.95;;;;;;;;;;5050051;28;20083;-77
2021/01/18 13:04:25;;;;;;;13.68;6.63;;;;;;;;;;5050969;28;20097;-77
2021/01/18 13:06:51;;;;;;;13.55;6.85;;;;;;;;;;5050899;28;20086;-76
2021/01/18 13:09:19;;;;;;;47.17;24.25;;;;;;;;;;5051337;28;20033;-76
2021/01/18 13:11:52;;;;;;;18.45;8.73;;;;;;;;;;5038582;28;20039;-77
2021/01/18 13:14:19;;;;;;;13.27;5.85;;;;;;;;;;5036835;28;20094;-77
2021/01/18 13:16:46;;;;;;;11.23;5.95;;;;;;;;;;5049293;28;20044;-76
2021/01/18 13:19:12;;;;;;;15.65;6.43;;;;;;;;;;5051018;28;20051;-78
2021/01/18 13:21:38;;;;;;;11.32;5.95;;;;;;;;;;5051197;28;20055;-74
2021/01/18 13:24:04;;;;;;;15.95;6.53;;;;;;;;;;5051980;28;20516;-75